Portada
METAR-TAF:

METAR-TAF

Aeroports :

Wiscasset Airport

Wiscasset, Maine, Estats Units d'Amèrica

latitud: 43-57-49N, longitud: 069-42-42W, altitud: 20 m

Observació

L'informe es va fer fa 1 hora i 4 minuts, a les 15:53 UTC
Vent 6 kt del Sud/Sud-Est
Temperatura 19°C
Humitat 73%
Pressió 1023 hPa
Visibilitat: 16.1 km
Cel clar

METAR: KIWI 261553Z AUTO 16006KT 10SM CLR 19/14 A3022 RMK AO2 SLP235 T01940139

Hora: 12:57 (16:57 UTC)


TAF: manca

Observacions i pronòstics meteorològics de més de 4000 aeroports (METAR i TAF).

Les estacions disponibles són els punts grocs i vermells al mapa.

Posi el ratolí al punt desitjat per veure el nom de l'estació.

Feu clic per veure les observacions i els pronòstics meteorològics.

Per canviar el mapa: feu clic els botons verds amb una creu de color negre per apropar; al botó verd amb un guió per allunyar la imatge; o en les fletxes verdes per a mapes adjacents.


METAR-TAF: